createdAt,value
2023-01-21T00:01:37.370Z,11.10
2023-01-21T00:04:08.352Z,12.10
2023-01-21T00:06:38.976Z,11.30
2023-01-21T00:09:09.675Z,11.40
2023-01-21T00:11:40.198Z,12.30
2023-01-21T00:14:11.862Z,10.80
2023-01-21T00:16:42.237Z,12.00
2023-01-21T00:19:12.921Z,12.60
2023-01-21T00:21:43.285Z,12.90
2023-01-21T00:24:14.228Z,12.60
2023-01-21T00:26:45.579Z,13.30
2023-01-21T00:29:16.490Z,12.70
2023-01-21T00:31:47.263Z,14.00
2023-01-21T00:34:18.940Z,11.00
2023-01-21T00:36:49.880Z,11.80
2023-01-21T00:39:20.805Z,12.20
2023-01-21T00:41:51.442Z,8.80
2023-01-21T00:44:22.097Z,11.00
2023-01-21T00:46:52.928Z,8.90
2023-01-21T00:49:23.444Z,10.40
2023-01-21T00:51:53.886Z,9.70
2023-01-21T00:54:24.405Z,8.00
2023-01-21T00:56:54.927Z,10.00
2023-01-21T00:59:27.154Z,9.20
2023-01-21T01:01:57.503Z,9.70
2023-01-21T01:04:28.498Z,8.80
2023-01-21T01:06:59.213Z,9.40
2023-01-21T01:09:30.175Z,9.10
2023-01-21T01:12:00.599Z,9.20
2023-01-21T01:14:31.272Z,7.50
2023-01-21T01:17:01.608Z,12.20
2023-01-21T01:19:32.150Z,11.60
2023-01-21T01:22:03.043Z,12.10
2023-01-21T01:24:33.478Z,9.90
2023-01-21T01:27:05.213Z,10.60
2023-01-21T01:29:36.095Z,9.30
2023-01-21T01:32:06.867Z,9.70
2023-01-21T01:34:38.304Z,9.70
2023-01-21T01:37:09.364Z,9.80
2023-01-21T01:39:40.115Z,10.00
2023-01-21T01:42:17.320Z,8.90
2023-01-21T01:45:00.900Z,10.60
2023-01-21T01:47:37.129Z,7.60
2023-01-21T01:50:11.830Z,9.30
2023-01-21T01:52:43.758Z,8.60
2023-01-21T01:55:16.370Z,8.70
2023-01-21T01:57:51.565Z,9.00
2023-01-21T02:00:25.188Z,8.60
2023-01-21T02:03:15.318Z,9.90
2023-01-21T02:05:47.840Z,6.00
2023-01-21T02:08:18.689Z,7.80
2023-01-21T02:10:49.223Z,8.90
2023-01-21T02:13:20.252Z,7.20
2023-01-21T02:16:02.813Z,9.20
2023-01-21T02:18:41.716Z,7.10
2023-01-21T02:21:34.416Z,8.80
2023-01-21T02:24:47.773Z,7.70
2023-01-21T02:27:53.927Z,8.90
2023-01-21T02:30:47.652Z,7.80
2023-01-21T02:33:38.573Z,8.30
2023-01-21T02:36:26.253Z,7.80
2023-01-21T02:39:04.937Z,8.00
2023-01-21T02:41:44.215Z,7.40
2023-01-21T02:44:21.682Z,7.90
2023-01-21T02:46:59.591Z,7.20
2023-01-21T02:49:35.880Z,6.60
2023-01-21T02:52:06.547Z,6.60
2023-01-21T02:54:56.172Z,6.20
2023-01-21T02:57:49.512Z,6.00
2023-01-21T03:00:23.946Z,5.90
2023-01-21T03:03:15.872Z,6.50
2023-01-21T03:06:07.445Z,5.60
2023-01-21T03:08:47.058Z,6.10
2023-01-21T03:11:19.933Z,6.10
2023-01-21T03:14:13.443Z,5.80
2023-01-21T03:16:59.731Z,5.60
2023-01-21T03:19:38.432Z,6.20
2023-01-21T03:22:13.865Z,5.20
2023-01-21T03:24:48.105Z,6.20
2023-01-21T03:27:22.207Z,6.50
2023-01-21T03:29:56.749Z,5.80
2023-01-21T03:32:29.186Z,6.50
2023-01-21T03:35:02.405Z,6.20
2023-01-21T03:37:38.151Z,5.80
2023-01-21T03:40:19.340Z,7.30
2023-01-21T03:42:52.567Z,6.10
2023-01-21T03:45:34.342Z,5.90
2023-01-21T03:48:13.427Z,6.90
2023-01-21T03:50:49.850Z,6.40
2023-01-21T03:53:20.511Z,6.80
2023-01-21T03:55:53.989Z,6.00
2023-01-21T03:58:24.414Z,6.00
2023-01-21T04:00:54.928Z,6.50
2023-01-21T04:03:26.408Z,7.00
2023-01-21T04:05:56.797Z,6.60
2023-01-21T04:08:27.473Z,6.70
2023-01-21T04:10:57.899Z,6.50
2023-01-21T04:13:28.664Z,6.60
2023-01-21T04:15:58.977Z,5.80
2023-01-21T04:18:29.938Z,6.00
2023-01-21T04:21:00.787Z,5.30
2023-01-21T04:23:31.168Z,5.10
2023-01-21T04:26:01.931Z,5.70
2023-01-21T04:28:32.238Z,7.10
2023-01-21T04:31:02.678Z,7.00
2023-01-21T04:33:33.096Z,7.40
2023-01-21T04:36:03.977Z,6.30
2023-01-21T04:38:34.363Z,7.40
2023-01-21T04:41:05.116Z,6.30
2023-01-21T04:43:35.473Z,7.00
2023-01-21T04:46:06.415Z,6.20
2023-01-21T04:48:36.929Z,8.30
2023-01-21T04:51:08.051Z,9.20
2023-01-21T04:53:38.668Z,6.80
2023-01-21T04:56:09.815Z,6.30
2023-01-21T04:58:40.112Z,5.30
2023-01-21T05:01:10.598Z,6.60
2023-01-21T05:03:41.216Z,7.50
2023-01-21T05:06:11.614Z,4.10
2023-01-21T05:08:41.945Z,6.90
2023-01-21T05:11:16.392Z,6.90
2023-01-21T05:13:46.708Z,8.30
2023-01-21T05:16:17.055Z,4.90
2023-01-21T05:18:48.857Z,7.30
2023-01-21T05:21:19.818Z,6.80
2023-01-21T05:23:50.174Z,7.40
2023-01-21T05:26:20.499Z,6.10
2023-01-21T05:28:51.111Z,7.90
2023-01-21T05:31:22.398Z,7.30
2023-01-21T05:33:53.369Z,8.40
2023-01-21T05:36:24.027Z,8.00
2023-01-21T05:38:54.319Z,8.40
2023-01-21T05:41:25.298Z,7.80
2023-01-21T05:43:55.947Z,7.90
2023-01-21T05:46:26.277Z,8.10
2023-01-21T05:48:56.649Z,8.40
2023-01-21T05:51:26.979Z,7.80
2023-01-21T05:53:57.310Z,7.10
2023-01-21T05:56:27.816Z,7.50
2023-01-21T05:58:58.180Z,7.10
2023-01-21T06:01:28.528Z,6.80
2023-01-21T06:03:58.857Z,6.50
2023-01-21T06:06:29.500Z,5.60
2023-01-21T06:09:00.452Z,6.20
2023-01-21T06:11:30.844Z,6.20
2023-01-21T06:14:01.453Z,5.50
2023-01-21T06:16:32.081Z,5.30
2023-01-21T06:19:03.034Z,5.50
2023-01-21T06:21:33.460Z,5.10
2023-01-21T06:24:04.245Z,5.40
2023-01-21T06:26:35.193Z,4.90
2023-01-21T06:29:05.949Z,4.90
2023-01-21T06:31:36.841Z,4.80
2023-01-21T06:34:07.640Z,4.70
2023-01-21T06:36:37.984Z,4.60
2023-01-21T06:39:09.599Z,4.20
2023-01-21T06:41:40.337Z,4.70
2023-01-21T06:44:11.572Z,4.90
2023-01-21T06:46:45.958Z,5.30
2023-01-21T06:49:22.564Z,5.00
2023-01-21T06:51:52.913Z,4.70
2023-01-21T06:54:23.170Z,4.60
2023-01-21T06:56:53.899Z,5.00
2023-01-21T06:59:24.577Z,5.20
2023-01-21T07:01:55.054Z,5.60
2023-01-21T07:04:25.760Z,4.80
2023-01-21T07:06:56.473Z,5.10
2023-01-21T07:09:27.277Z,4.60
2023-01-21T07:11:58.652Z,4.20
2023-01-21T07:14:29.082Z,4.50
2023-01-21T07:16:59.409Z,4.80
2023-01-21T07:19:30.253Z,5.70
2023-01-21T07:22:01.282Z,4.90
2023-01-21T07:24:32.253Z,5.00
2023-01-21T07:27:02.630Z,7.00
2023-01-21T07:29:33.571Z,7.60
2023-01-21T07:32:04.272Z,5.40
2023-01-21T07:34:34.778Z,5.20
2023-01-21T07:37:05.224Z,3.70
2023-01-21T07:39:35.894Z,5.00
2023-01-21T07:42:06.632Z,5.40
2023-01-21T07:44:37.040Z,5.30
2023-01-21T07:47:07.987Z,5.40
2023-01-21T07:49:38.494Z,5.30
2023-01-21T07:52:09.053Z,4.90
2023-01-21T07:54:39.403Z,4.30
2023-01-21T07:57:10.419Z,4.60
2023-01-21T07:59:40.800Z,5.00
2023-01-21T08:02:12.882Z,4.70
2023-01-21T08:04:43.391Z,5.00
2023-01-21T08:07:14.213Z,4.30
2023-01-21T08:09:44.590Z,4.10
2023-01-21T08:12:14.995Z,4.40
2023-01-21T08:14:45.634Z,5.40
2023-01-21T08:17:16.280Z,3.90
2023-01-21T08:19:47.008Z,4.50
2023-01-21T08:22:17.477Z,4.40
2023-01-21T08:24:47.949Z,5.90
2023-01-21T08:27:18.313Z,4.70
2023-01-21T08:29:48.758Z,5.00
2023-01-21T08:32:19.302Z,5.40
2023-01-21T08:34:50.551Z,6.90
2023-01-21T08:37:20.896Z,6.50
2023-01-21T08:39:51.653Z,6.60
2023-01-21T08:42:22.383Z,5.20
2023-01-21T08:44:54.217Z,7.50
2023-01-21T08:47:25.105Z,7.60
2023-01-21T08:49:55.448Z,5.70
2023-01-21T08:52:25.888Z,6.70
2023-01-21T08:54:56.212Z,4.60
2023-01-21T08:57:27.909Z,5.50
2023-01-21T08:59:58.742Z,6.40
2023-01-21T09:02:29.319Z,6.60
2023-01-21T09:05:00.147Z,7.00
2023-01-21T09:07:30.486Z,7.30
2023-01-21T09:10:00.811Z,6.90
2023-01-21T09:12:31.436Z,7.30
2023-01-21T09:15:01.789Z,6.50
2023-01-21T09:17:32.330Z,7.20
2023-01-21T09:20:03.467Z,5.00
2023-01-21T09:22:34.295Z,6.00
2023-01-21T09:25:10.239Z,7.20
2023-01-21T09:27:40.541Z,7.40
2023-01-21T09:30:12.962Z,7.10
2023-01-21T09:32:43.552Z,5.40
2023-01-21T09:35:14.629Z,8.10
2023-01-21T09:37:46.808Z,7.00
2023-01-21T09:40:18.908Z,6.10
2023-01-21T09:42:49.343Z,6.60
2023-01-21T09:45:21.639Z,6.30
2023-01-21T09:47:55.129Z,6.90
2023-01-21T09:50:26.495Z,7.50
2023-01-21T09:53:06.137Z,6.90
2023-01-21T09:55:41.779Z,6.40
2023-01-21T09:58:22.083Z,7.10
2023-01-21T10:00:58.787Z,6.30
2023-01-21T10:03:38.125Z,7.10
2023-01-21T10:06:21.102Z,7.40
2023-01-21T10:09:16.444Z,6.30
2023-01-21T10:12:00.135Z,5.70
2023-01-21T10:14:50.127Z,6.40
2023-01-21T10:17:28.733Z,5.70
2023-01-21T10:20:06.964Z,6.00
2023-01-21T10:22:40.628Z,6.70
2023-01-21T10:25:20.133Z,5.60
2023-01-21T10:27:50.618Z,5.70
2023-01-21T10:30:29.067Z,4.30
2023-01-21T10:32:59.652Z,6.40
2023-01-21T10:35:48.267Z,6.80
2023-01-21T10:38:24.261Z,6.40
2023-01-21T10:41:03.426Z,6.50
2023-01-21T10:43:43.094Z,5.60
2023-01-21T10:46:21.509Z,6.30
2023-01-21T10:48:59.131Z,6.90
2023-01-21T10:51:37.864Z,5.80
2023-01-21T10:54:16.165Z,6.10
2023-01-21T10:56:56.175Z,4.80
2023-01-21T10:59:32.253Z,6.20
2023-01-21T11:02:14.381Z,6.60
2023-01-21T11:04:45.877Z,5.10
2023-01-21T11:07:20.411Z,5.40
2023-01-21T11:09:51.428Z,6.90
2023-01-21T11:12:24.838Z,4.60
2023-01-21T11:14:58.535Z,6.20
2023-01-21T11:17:35.280Z,6.40
2023-01-21T11:20:19.697Z,5.40
2023-01-21T11:22:52.166Z,5.80
2023-01-21T11:25:40.937Z,5.20
2023-01-21T11:28:25.299Z,5.80
2023-01-21T11:31:07.988Z,6.40
2023-01-21T11:33:42.933Z,5.80
2023-01-21T11:36:16.129Z,6.20
2023-01-21T11:38:48.328Z,5.20
2023-01-21T11:41:22.685Z,5.90
2023-01-21T11:43:55.429Z,5.00
2023-01-21T11:46:30.062Z,5.40
2023-01-21T11:49:21.876Z,5.70
2023-01-21T11:52:06.607Z,5.80
2023-01-21T11:54:41.807Z,5.70
2023-01-21T11:57:23.780Z,5.50
2023-01-21T11:59:56.633Z,6.50
2023-01-21T12:02:30.346Z,5.20
2023-01-21T12:05:02.979Z,7.20
2023-01-21T12:07:36.421Z,5.90
2023-01-21T12:10:20.917Z,5.50
2023-01-21T12:13:04.069Z,5.10
2023-01-21T12:15:53.545Z,6.20
2023-01-21T12:18:38.751Z,6.00
2023-01-21T12:21:22.960Z,5.50
2023-01-21T12:24:07.447Z,5.40
2023-01-21T12:26:45.413Z,5.10
2023-01-21T12:31:57.604Z,7.70
2023-01-21T12:34:34.463Z,6.10
2023-01-21T12:37:12.459Z,5.40
2023-01-21T12:42:17.818Z,6.30
2023-01-21T12:44:53.707Z,6.00
2023-01-21T12:47:31.685Z,5.70
2023-01-21T12:52:58.361Z,6.40
2023-01-21T12:55:36.629Z,4.80
2023-01-21T12:58:10.889Z,4.80
2023-01-21T13:00:46.032Z,5.30
2023-01-21T13:03:27.698Z,5.60
2023-01-21T13:06:02.880Z,5.50
2023-01-21T13:08:48.550Z,6.40
2023-01-21T13:11:23.971Z,5.30
2023-01-21T13:14:02.669Z,6.10
2023-01-21T13:16:37.189Z,6.20
2023-01-21T13:19:08.430Z,4.80
2023-01-21T13:21:45.781Z,5.60
2023-01-21T13:24:24.326Z,5.50
2023-01-21T13:27:04.700Z,4.50
2023-01-21T13:29:44.598Z,4.30
2023-01-21T13:32:29.972Z,5.50
2023-01-21T13:35:16.143Z,5.30
2023-01-21T13:37:54.319Z,5.00
2023-01-21T13:43:13.941Z,3.60
2023-01-21T13:45:59.350Z,5.00
2023-01-21T13:49:02.630Z,4.70
2023-01-21T13:51:44.727Z,4.70
2023-01-21T13:54:38.363Z,4.40
2023-01-21T13:57:32.135Z,3.70
2023-01-21T14:00:10.504Z,5.00
2023-01-21T14:02:46.831Z,4.60
2023-01-21T14:05:23.758Z,4.70
2023-01-21T14:07:59.063Z,3.50
2023-01-21T14:10:34.815Z,3.80
2023-01-21T14:13:38.648Z,3.80
2023-01-21T14:16:47.680Z,4.50
2023-01-21T14:20:03.755Z,3.80
2023-01-21T14:22:50.405Z,3.40
2023-01-21T14:25:31.896Z,3.70
2023-01-21T14:28:13.496Z,4.60
2023-01-21T14:30:46.806Z,4.30
2023-01-21T14:33:22.313Z,3.60
2023-01-21T14:36:01.811Z,4.10
2023-01-21T14:38:53.062Z,4.10
2023-01-21T14:41:23.477Z,3.50
2023-01-21T14:43:54.925Z,4.40
2023-01-21T14:46:34.279Z,4.30
2023-01-21T14:49:08.224Z,3.90
2023-01-21T14:51:44.492Z,3.60
2023-01-21T14:54:19.627Z,4.30
2023-01-21T14:57:01.787Z,5.10
2023-01-21T14:59:41.699Z,4.50
2023-01-21T15:02:28.798Z,4.80
2023-01-21T15:05:00.730Z,3.80
2023-01-21T15:07:39.645Z,4.60
2023-01-21T15:10:18.768Z,5.40
2023-01-21T15:12:55.188Z,4.70
2023-01-21T15:15:37.045Z,4.50
2023-01-21T15:18:26.223Z,6.20
2023-01-21T15:20:58.505Z,6.20
2023-01-21T15:23:40.891Z,5.10
2023-01-21T15:26:33.187Z,3.30
2023-01-21T15:29:33.501Z,5.50
2023-01-21T15:32:23.343Z,4.70
2023-01-21T15:34:56.704Z,5.00
2023-01-21T15:37:29.978Z,5.60
2023-01-21T15:40:13.518Z,6.00
2023-01-21T15:42:51.979Z,4.20
2023-01-21T15:45:39.117Z,5.60
2023-01-21T15:48:40.123Z,5.60
2023-01-21T15:51:21.212Z,5.90
2023-01-21T15:54:12.071Z,4.00
2023-01-21T15:57:03.236Z,5.60
2023-01-21T16:00:05.880Z,5.10
2023-01-21T16:02:44.642Z,5.20
2023-01-21T16:05:26.095Z,5.10
2023-01-21T16:08:06.732Z,4.60
2023-01-21T16:10:45.572Z,5.80
2023-01-21T16:13:24.709Z,6.20
2023-01-21T16:16:09.065Z,4.80
2023-01-21T16:18:51.502Z,5.50
2023-01-21T16:21:28.569Z,4.50
2023-01-21T16:24:04.956Z,4.90
2023-01-21T16:26:35.397Z,6.00
2023-01-21T16:29:13.128Z,6.20
2023-01-21T16:31:51.783Z,5.80
2023-01-21T16:34:40.748Z,6.00
2023-01-21T16:37:14.627Z,5.50
2023-01-21T16:39:45.759Z,6.90
2023-01-21T16:42:36.297Z,5.40
2023-01-21T16:45:17.082Z,5.00
2023-01-21T16:47:56.835Z,6.10
2023-01-21T16:50:30.602Z,5.20
2023-01-21T16:53:07.260Z,5.50
2023-01-21T16:55:49.514Z,5.40
2023-01-21T16:58:26.302Z,5.90
2023-01-21T17:01:16.324Z,5.40
2023-01-21T17:03:48.185Z,4.90
2023-01-21T17:06:25.024Z,5.30
2023-01-21T17:08:59.652Z,4.70
2023-01-21T17:11:31.382Z,5.50
2023-01-21T17:14:08.634Z,4.90
2023-01-21T17:16:42.508Z,4.70
2023-01-21T17:19:28.876Z,4.60
2023-01-21T17:22:01.985Z,4.60
2023-01-21T17:24:39.241Z,4.80
2023-01-21T17:27:15.310Z,4.80
2023-01-21T17:29:45.927Z,4.70
2023-01-21T17:32:28.208Z,4.30
2023-01-21T17:35:13.507Z,4.10
2023-01-21T17:37:55.055Z,3.80
2023-01-21T17:40:43.692Z,4.00
2023-01-21T17:43:21.773Z,3.90
2023-01-21T17:48:33.139Z,2.90
2023-01-21T17:51:13.261Z,3.20
2023-01-21T17:53:52.552Z,3.40
2023-01-21T17:59:37.622Z,3.30
2023-01-21T18:02:11.938Z,3.50
2023-01-21T18:04:44.193Z,3.40
2023-01-21T18:07:22.487Z,3.10
2023-01-21T18:09:54.305Z,2.70
2023-01-21T18:12:25.037Z,3.20
2023-01-21T18:14:55.775Z,2.60
2023-01-21T18:17:27.673Z,3.40
2023-01-21T18:19:58.235Z,3.50
2023-01-21T18:22:32.054Z,3.10
2023-01-21T18:25:02.947Z,3.70
2023-01-21T18:27:33.828Z,3.30
2023-01-21T18:30:10.718Z,2.80
2023-01-21T18:32:42.781Z,3.50
2023-01-21T18:35:15.560Z,3.20
2023-01-21T18:37:46.186Z,3.40
2023-01-21T18:40:20.797Z,2.70
2023-01-21T18:42:52.411Z,3.70
2023-01-21T18:45:26.711Z,2.90
2023-01-21T18:47:58.152Z,3.60
2023-01-21T18:50:30.562Z,3.10
2023-01-21T18:53:01.413Z,2.90
2023-01-21T18:55:32.260Z,4.00
2023-01-21T18:58:04.465Z,3.50
2023-01-21T19:00:35.883Z,2.90
2023-01-21T19:03:06.840Z,2.90
2023-01-21T19:05:39.925Z,2.90
2023-01-21T19:08:16.499Z,2.80
2023-01-21T19:10:47.169Z,2.80
2023-01-21T19:13:18.191Z,3.10
2023-01-21T19:15:50.279Z,2.60
2023-01-21T19:18:20.636Z,2.80
2023-01-21T19:20:51.422Z,3.50
2023-01-21T19:23:21.801Z,2.50
2023-01-21T19:25:55.724Z,3.00
2023-01-21T19:28:27.729Z,2.70
2023-01-21T19:30:58.348Z,2.60
2023-01-21T19:33:28.879Z,2.80
2023-01-21T19:36:03.659Z,3.10
2023-01-21T19:38:34.534Z,3.90
2023-01-21T19:41:05.459Z,2.80
2023-01-21T19:43:36.351Z,2.70
2023-01-21T19:46:12.830Z,3.10
2023-01-21T19:48:43.260Z,3.40
2023-01-21T19:51:13.854Z,3.00
2023-01-21T19:53:44.261Z,2.50
2023-01-21T19:56:18.202Z,3.20
2023-01-21T19:58:49.000Z,2.90
2023-01-21T20:01:19.692Z,3.20
2023-01-21T20:03:59.623Z,2.90
2023-01-21T20:06:35.344Z,3.00
2023-01-21T20:09:06.175Z,3.10
2023-01-21T20:11:36.935Z,2.90
2023-01-21T20:14:08.009Z,2.50
2023-01-21T20:16:46.636Z,2.60
2023-01-21T20:19:19.069Z,3.20
2023-01-21T20:22:01.365Z,4.00
2023-01-21T20:24:34.146Z,3.10
2023-01-21T20:27:09.367Z,3.80
2023-01-21T20:29:49.517Z,3.60
2023-01-21T20:32:26.219Z,3.20
2023-01-21T20:34:56.547Z,3.70
2023-01-21T20:37:27.646Z,3.80
2023-01-21T20:39:58.116Z,3.50
2023-01-21T20:42:28.708Z,4.00
2023-01-21T20:44:59.754Z,3.80
2023-01-21T20:47:38.351Z,3.40
2023-01-21T20:50:22.346Z,3.70
2023-01-21T20:52:53.634Z,2.70
2023-01-21T20:55:26.861Z,2.90
2023-01-21T20:57:57.903Z,3.10
2023-01-21T21:00:32.458Z,3.10
2023-01-21T21:03:03.157Z,3.60
2023-01-21T21:05:33.981Z,3.10
2023-01-21T21:08:04.996Z,3.60
2023-01-21T21:10:37.095Z,3.30
2023-01-21T21:13:08.496Z,3.60
2023-01-21T21:15:39.811Z,3.30
2023-01-21T21:18:12.883Z,3.20
2023-01-21T21:20:43.543Z,3.90
2023-01-21T21:23:15.687Z,2.70
2023-01-21T21:25:47.755Z,3.00
2023-01-21T21:28:21.128Z,2.90
2023-01-21T21:30:51.562Z,3.40
2023-01-21T21:33:23.213Z,2.50
2023-01-21T21:35:55.707Z,2.80
2023-01-21T21:38:26.728Z,2.50
2023-01-21T21:41:17.863Z,5.90
2023-01-21T21:43:48.443Z,3.60
2023-01-21T21:46:44.972Z,3.60
2023-01-21T21:49:15.317Z,2.70
2023-01-21T21:51:46.117Z,3.00
2023-01-21T21:54:18.569Z,3.00
2023-01-21T21:56:49.714Z,3.00
2023-01-21T21:59:20.049Z,3.00
2023-01-21T22:01:50.434Z,2.40
2023-01-21T22:04:22.923Z,3.40
2023-01-21T22:06:53.796Z,2.60
2023-01-21T22:09:24.836Z,3.20
2023-01-21T22:11:55.237Z,2.80
2023-01-21T22:14:25.854Z,2.70
2023-01-21T22:16:56.472Z,2.80
2023-01-21T22:19:26.821Z,3.50
2023-01-21T22:21:57.303Z,2.80
2023-01-21T22:24:27.657Z,2.70
2023-01-21T22:26:58.812Z,2.80
2023-01-21T22:29:29.578Z,2.70
2023-01-21T22:32:00.212Z,2.40
2023-01-21T22:34:30.977Z,3.20
2023-01-21T22:37:01.738Z,2.60
2023-01-21T22:39:33.536Z,3.00
2023-01-21T22:42:05.084Z,2.70
2023-01-21T22:44:36.189Z,2.70
2023-01-21T22:47:06.580Z,3.10
2023-01-21T22:49:36.887Z,2.50
2023-01-21T22:52:07.379Z,3.00
2023-01-21T22:54:38.121Z,3.10
2023-01-21T22:57:08.474Z,2.70
2023-01-21T22:59:39.794Z,2.80
2023-01-21T23:02:10.578Z,3.40
2023-01-21T23:04:41.569Z,2.40
2023-01-21T23:07:12.291Z,2.80
2023-01-21T23:09:42.721Z,2.20
2023-01-21T23:12:18.766Z,2.50
2023-01-21T23:14:49.177Z,2.20
2023-01-21T23:17:20.177Z,2.30
2023-01-21T23:19:50.860Z,2.90
2023-01-21T23:22:22.604Z,2.60
2023-01-21T23:24:52.978Z,2.10
2023-01-21T23:27:23.895Z,2.50
2023-01-21T23:29:54.501Z,2.50
2023-01-21T23:32:25.181Z,2.40
2023-01-21T23:34:55.850Z,2.40
2023-01-21T23:37:26.302Z,2.80
2023-01-21T23:39:56.994Z,2.70
2023-01-21T23:42:27.562Z,2.60
2023-01-21T23:44:58.195Z,2.70
2023-01-21T23:47:29.163Z,2.30
2023-01-21T23:49:59.783Z,2.20
2023-01-21T23:52:30.205Z,2.30
2023-01-21T23:55:01.017Z,2.30
2023-01-21T23:57:31.299Z,2.70
